createdAt,value
2022-11-13T00:02:08.549Z,8.51
2022-11-13T00:04:55.248Z,8.53
2022-11-13T00:07:42.559Z,8.47
2022-11-13T00:10:31.075Z,8.41
2022-11-13T00:13:17.439Z,8.38
2022-11-13T00:16:06.938Z,8.39
2022-11-13T00:18:53.647Z,8.42
2022-11-13T00:21:39.649Z,8.45
2022-11-13T00:24:25.721Z,8.50
2022-11-13T00:27:12.191Z,8.48
2022-11-13T00:29:58.729Z,8.49
2022-11-13T00:32:45.310Z,8.48
2022-11-13T00:35:34.619Z,8.47
2022-11-13T00:38:21.226Z,8.49
2022-11-13T00:41:07.564Z,8.50
2022-11-13T00:43:53.706Z,8.50
2022-11-13T00:46:41.348Z,8.48
2022-11-13T00:49:28.082Z,8.48
2022-11-13T00:52:14.429Z,8.47
2022-11-13T00:55:00.560Z,8.47
2022-11-13T00:57:46.697Z,8.48
2022-11-13T01:00:34.778Z,8.49
2022-11-13T01:03:21.681Z,8.48
2022-11-13T01:06:19.317Z,8.44
2022-11-13T01:09:06.661Z,8.43
2022-11-13T01:11:53.491Z,8.42
2022-11-13T01:14:39.867Z,8.43
2022-11-13T01:17:27.502Z,8.43
2022-11-13T01:20:13.805Z,8.37
2022-11-13T01:23:00.159Z,8.39
2022-11-13T01:25:46.561Z,8.37
2022-11-13T01:28:33.136Z,8.36
2022-11-13T01:31:23.668Z,8.37
2022-11-13T01:34:09.666Z,8.43
2022-11-13T01:36:55.799Z,8.44
2022-11-13T01:39:41.980Z,8.43
2022-11-13T01:42:34.292Z,8.47
2022-11-13T01:46:02.232Z,8.52
2022-11-13T01:48:55.122Z,8.54
2022-11-13T01:51:54.910Z,8.59
2022-11-13T01:54:48.819Z,8.65
2022-11-13T01:57:37.487Z,8.62
2022-11-13T02:00:23.393Z,8.63
2022-11-13T02:03:09.565Z,8.68
2022-11-13T02:05:56.886Z,8.67
2022-11-13T02:08:44.442Z,8.64
2022-11-13T02:11:30.926Z,8.69
2022-11-13T02:14:19.412Z,8.69
2022-11-13T02:17:09.321Z,8.68
2022-11-13T02:20:00.874Z,8.74
2022-11-13T02:22:52.804Z,8.75
2022-11-13T02:25:40.186Z,8.76
2022-11-13T02:28:26.759Z,8.76
2022-11-13T02:31:14.522Z,8.73
2022-11-13T02:34:02.468Z,8.75
2022-11-13T02:36:51.119Z,8.79
2022-11-13T02:39:38.894Z,8.78
2022-11-13T02:42:25.320Z,8.80
2022-11-13T02:45:11.798Z,8.76
2022-11-13T02:48:01.162Z,8.79
2022-11-13T02:50:48.907Z,8.77
2022-11-13T02:53:35.108Z,8.76
2022-11-13T02:56:21.382Z,8.79
2022-11-13T02:59:08.261Z,8.88
2022-11-13T03:01:54.191Z,8.88
2022-11-13T03:05:10.440Z,8.88
2022-11-13T03:07:47.762Z,8.89
2022-11-13T03:10:33.473Z,8.88
2022-11-13T03:13:19.708Z,8.89
2022-11-13T03:16:12.430Z,8.83
2022-11-13T03:18:58.751Z,8.91
2022-11-13T03:21:45.746Z,8.92
2022-11-13T03:24:32.421Z,8.92
2022-11-13T03:27:19.605Z,8.98
2022-11-13T03:30:06.309Z,8.97
2022-11-13T03:32:56.266Z,9.03
2022-11-13T03:35:46.731Z,9.03
2022-11-13T03:38:33.566Z,9.00
2022-11-13T03:41:22.325Z,8.99
2022-11-13T03:44:08.738Z,9.01
2022-11-13T03:46:55.018Z,8.98
2022-11-13T03:49:41.079Z,9.01
2022-11-13T03:52:27.354Z,9.00
2022-11-13T03:55:13.543Z,9.04
2022-11-13T03:58:00.388Z,9.07
2022-11-13T04:00:49.307Z,9.06
2022-11-13T04:03:35.786Z,9.11
2022-11-13T04:06:22.085Z,9.16
2022-11-13T04:09:08.243Z,9.15
2022-11-13T04:11:54.677Z,9.17
2022-11-13T04:14:40.993Z,9.19
2022-11-13T04:17:29.026Z,9.21
2022-11-13T04:20:16.090Z,9.19
2022-11-13T04:23:04.714Z,9.23
2022-11-13T04:25:50.761Z,9.23
2022-11-13T04:28:36.810Z,9.25
2022-11-13T04:31:23.198Z,9.25
2022-11-13T04:34:09.208Z,9.20
2022-11-13T04:36:55.729Z,9.24
2022-11-13T04:39:41.516Z,9.25
2022-11-13T04:42:46.242Z,9.21
2022-11-13T04:45:34.735Z,9.20
2022-11-13T04:48:20.828Z,9.21
2022-11-13T04:51:07.032Z,9.23
2022-11-13T04:53:53.453Z,9.17
2022-11-13T04:56:40.439Z,9.24
2022-11-13T04:59:26.754Z,9.22
2022-11-13T05:02:12.882Z,9.20
2022-11-13T05:05:04.400Z,9.21
2022-11-13T05:07:52.298Z,9.23
2022-11-13T05:10:38.519Z,9.26
2022-11-13T05:13:24.938Z,9.22
2022-11-13T05:16:13.813Z,9.25
2022-11-13T05:19:01.228Z,9.24
2022-11-13T05:21:47.696Z,9.22
2022-11-13T05:24:36.359Z,9.21
2022-11-13T05:27:22.255Z,9.27
2022-11-13T05:30:12.089Z,9.25
2022-11-13T05:32:58.588Z,9.22
2022-11-13T05:35:44.922Z,9.29
2022-11-13T05:38:31.862Z,9.31
2022-11-13T05:41:21.064Z,9.40
2022-11-13T05:44:08.217Z,9.44
2022-11-13T05:46:54.728Z,9.43
2022-11-13T05:49:40.898Z,9.46
2022-11-13T05:52:27.230Z,9.52
2022-11-13T05:55:13.247Z,9.56
2022-11-13T05:57:59.430Z,9.57
2022-11-13T06:00:46.386Z,9.57
2022-11-13T06:03:33.691Z,9.58
2022-11-13T06:06:22.464Z,9.60
2022-11-13T06:09:08.800Z,9.66
2022-11-13T06:11:55.714Z,9.68
2022-11-13T06:14:41.843Z,9.68
2022-11-13T06:17:28.230Z,9.73
2022-11-13T06:20:15.343Z,9.79
2022-11-13T06:23:01.847Z,9.76
2022-11-13T06:25:48.539Z,9.78
2022-11-13T06:28:35.269Z,9.82
2022-11-13T06:31:31.281Z,9.82
2022-11-13T06:34:17.479Z,9.87
2022-11-13T06:37:03.525Z,9.92
2022-11-13T06:39:50.569Z,9.95
2022-11-13T06:42:36.831Z,9.95
2022-11-13T06:45:22.738Z,9.92
2022-11-13T06:48:08.755Z,9.95
2022-11-13T06:50:54.784Z,10.00
2022-11-13T06:53:41.933Z,9.97
2022-11-13T06:56:28.080Z,10.00
2022-11-13T06:59:13.974Z,9.99
2022-11-13T07:01:59.998Z,10.00
2022-11-13T07:04:45.798Z,10.04
2022-11-13T07:07:33.440Z,10.10
2022-11-13T07:10:20.007Z,10.14
2022-11-13T07:13:06.799Z,10.15
2022-11-13T07:15:53.082Z,10.19
2022-11-13T07:18:41.691Z,10.23
2022-11-13T07:21:28.064Z,10.19
2022-11-13T07:24:17.099Z,10.20
2022-11-13T07:27:03.563Z,10.20
2022-11-13T07:29:49.994Z,10.21
2022-11-13T07:32:35.842Z,10.22
2022-11-13T07:35:23.051Z,10.23
2022-11-13T07:38:09.648Z,10.22
2022-11-13T07:40:59.063Z,10.24
2022-11-13T07:43:45.400Z,10.29
2022-11-13T07:46:31.757Z,10.25
2022-11-13T07:49:17.906Z,10.29
2022-11-13T07:52:04.096Z,10.30
2022-11-13T07:54:50.304Z,10.32
2022-11-13T07:57:36.950Z,10.37
2022-11-13T08:00:23.675Z,10.38
2022-11-13T08:03:13.682Z,10.37
2022-11-13T08:06:00.532Z,10.43
2022-11-13T08:08:49.648Z,10.43
2022-11-13T08:11:36.712Z,10.47
2022-11-13T08:14:23.505Z,10.50
2022-11-13T08:17:09.997Z,10.50
2022-11-13T08:19:56.246Z,10.47
2022-11-13T08:22:46.298Z,10.55
2022-11-13T08:25:34.244Z,10.59
2022-11-13T08:28:21.226Z,10.52
2022-11-13T08:31:11.489Z,10.57
2022-11-13T08:33:57.947Z,10.56
2022-11-13T08:36:44.864Z,10.60
2022-11-13T08:39:31.214Z,10.71
2022-11-13T08:42:17.255Z,10.71
2022-11-13T08:45:03.840Z,10.70
2022-11-13T08:47:50.082Z,10.75
2022-11-13T08:50:36.492Z,10.87
2022-11-13T08:53:24.871Z,10.87
2022-11-13T08:56:11.165Z,10.98
2022-11-13T08:58:57.363Z,10.93
2022-11-13T09:01:44.419Z,10.91
2022-11-13T09:04:30.955Z,11.03
2022-11-13T09:07:17.429Z,11.07
2022-11-13T09:10:04.076Z,11.11
2022-11-13T09:12:55.232Z,11.16
2022-11-13T09:15:42.386Z,11.14
2022-11-13T09:18:30.912Z,11.16
2022-11-13T09:21:17.685Z,11.36
2022-11-13T09:24:03.884Z,11.37
2022-11-13T09:26:50.230Z,11.40
2022-11-13T09:29:36.651Z,11.39
2022-11-13T09:32:23.137Z,11.44
2022-11-13T09:35:09.264Z,11.33
2022-11-13T09:37:55.621Z,11.35
2022-11-13T09:41:06.378Z,11.35
2022-11-13T09:44:00.154Z,11.31
2022-11-13T09:46:54.254Z,11.24
2022-11-13T09:49:46.929Z,11.20
2022-11-13T09:52:37.615Z,11.17
2022-11-13T09:55:31.575Z,11.21
2022-11-13T09:58:39.715Z,11.30
2022-11-13T10:01:33.712Z,11.38
2022-11-13T10:04:34.057Z,11.43
2022-11-13T10:07:40.051Z,11.36
2022-11-13T10:10:32.163Z,11.62
2022-11-13T10:13:24.383Z,11.55
2022-11-13T10:16:24.782Z,11.42
2022-11-13T10:19:30.207Z,11.48
2022-11-13T10:22:32.857Z,11.64
2022-11-13T10:25:28.688Z,11.77
2022-11-13T10:28:49.053Z,11.88
2022-11-13T10:31:24.998Z,11.95
2022-11-13T10:34:13.104Z,11.92
2022-11-13T10:37:30.451Z,12.03
2022-11-13T10:40:32.728Z,12.11
2022-11-13T10:43:22.901Z,11.98
2022-11-13T10:46:21.223Z,11.91
2022-11-13T10:49:13.283Z,11.94
2022-11-13T10:52:07.114Z,12.09
2022-11-13T10:55:33.967Z,12.13
2022-11-13T10:58:21.911Z,12.20
2022-11-13T11:01:26.034Z,12.15
2022-11-13T11:04:30.159Z,12.19
2022-11-13T11:07:22.545Z,12.24
2022-11-13T11:10:34.679Z,12.25
2022-11-13T11:13:23.966Z,12.12
2022-11-13T11:16:17.738Z,12.14
2022-11-13T11:19:10.428Z,12.32
2022-11-13T11:22:24.660Z,12.59
2022-11-13T11:25:18.850Z,12.59
2022-11-13T11:28:15.468Z,12.41
2022-11-13T11:31:45.375Z,12.70
2022-11-13T11:34:42.334Z,13.10
2022-11-13T11:37:38.322Z,13.20
2022-11-13T11:40:31.115Z,13.07
2022-11-13T11:43:23.535Z,12.73
2022-11-13T11:46:14.854Z,12.55
2022-11-13T11:49:01.780Z,12.32
2022-11-13T11:51:56.705Z,12.33
2022-11-13T11:54:59.187Z,12.49
2022-11-13T11:58:00.952Z,12.54
2022-11-13T12:00:52.464Z,12.60
2022-11-13T12:04:01.785Z,12.62
2022-11-13T12:07:10.613Z,12.52
2022-11-13T12:10:18.733Z,12.44
2022-11-13T12:13:10.762Z,12.45
2022-11-13T12:16:10.174Z,12.50
2022-11-13T12:19:11.110Z,12.53
2022-11-13T12:22:13.862Z,12.48
2022-11-13T12:25:34.829Z,12.42
2022-11-13T12:28:23.337Z,12.32
2022-11-13T12:31:28.696Z,12.25
2022-11-13T12:34:28.922Z,12.33
2022-11-13T12:37:22.998Z,12.41
2022-11-13T12:40:44.550Z,12.30
2022-11-13T12:43:49.780Z,12.28
2022-11-13T12:46:38.539Z,12.22
2022-11-13T12:49:27.610Z,12.18
2022-11-13T12:52:18.879Z,12.10
2022-11-13T12:55:09.168Z,12.07
2022-11-13T12:58:05.374Z,12.03
2022-11-13T13:01:19.585Z,12.00
2022-11-13T13:04:11.727Z,12.02
2022-11-13T13:07:30.655Z,11.92
2022-11-13T13:10:32.401Z,11.85
2022-11-13T13:13:24.837Z,11.81
2022-11-13T13:16:12.151Z,11.74
2022-11-13T13:19:28.615Z,11.70
2022-11-13T13:22:32.390Z,11.66
2022-11-13T13:25:35.916Z,11.64
2022-11-13T13:28:24.915Z,11.64
2022-11-13T13:31:42.101Z,11.58
2022-11-13T13:34:35.200Z,11.57
2022-11-13T13:37:40.431Z,11.52
2022-11-13T13:40:32.043Z,11.49
2022-11-13T13:43:55.703Z,11.48
2022-11-13T13:46:42.835Z,11.39
2022-11-13T13:49:29.541Z,11.39
2022-11-13T13:52:16.742Z,11.33
2022-11-13T13:55:07.796Z,11.30
2022-11-13T13:57:54.731Z,11.27
2022-11-13T14:01:05.148Z,11.27
2022-11-13T14:03:48.382Z,11.22
2022-11-13T14:06:34.979Z,11.17
2022-11-13T14:09:23.948Z,11.12
2022-11-13T14:12:19.390Z,11.09
2022-11-13T14:15:17.078Z,11.06
2022-11-13T14:18:14.976Z,11.04
2022-11-13T14:21:16.700Z,10.96
2022-11-13T14:24:03.738Z,10.93
2022-11-13T14:26:52.608Z,10.95
2022-11-13T14:29:50.497Z,10.90
2022-11-13T14:32:45.731Z,10.89
2022-11-13T14:35:38.361Z,10.84
2022-11-13T14:38:28.518Z,10.83
2022-11-13T14:41:22.235Z,10.77
2022-11-13T14:44:11.821Z,10.74
2022-11-13T14:47:06.702Z,10.74
2022-11-13T14:49:54.015Z,10.68
2022-11-13T14:52:41.048Z,10.64
2022-11-13T14:55:32.040Z,10.64
2022-11-13T14:58:35.913Z,10.59
2022-11-13T15:01:24.851Z,10.59
2022-11-13T15:04:11.234Z,10.57
2022-11-13T15:07:00.914Z,10.54
2022-11-13T15:09:50.997Z,10.52
2022-11-13T15:12:38.116Z,10.49
2022-11-13T15:15:28.621Z,10.46
2022-11-13T15:18:19.929Z,10.43
2022-11-13T15:21:06.460Z,10.41
2022-11-13T15:23:53.115Z,10.39
2022-11-13T15:26:39.979Z,10.34
2022-11-13T15:29:26.050Z,10.36
2022-11-13T15:32:14.657Z,10.31
2022-11-13T15:35:01.545Z,10.29
2022-11-13T15:37:47.642Z,10.26
2022-11-13T15:40:34.276Z,10.24
2022-11-13T15:43:20.638Z,10.16
2022-11-13T15:46:14.751Z,10.15
2022-11-13T15:49:00.994Z,10.17
2022-11-13T15:51:47.405Z,10.12
2022-11-13T15:54:37.659Z,10.10
2022-11-13T15:57:32.846Z,10.07
2022-11-13T16:00:24.843Z,10.08
2022-11-13T16:03:12.574Z,9.99
2022-11-13T16:06:00.323Z,10.03
2022-11-13T16:08:48.650Z,10.02
2022-11-13T16:11:36.698Z,9.97
2022-11-13T16:14:24.798Z,9.99
2022-11-13T16:17:14.723Z,10.01
2022-11-13T16:20:01.235Z,10.01
2022-11-13T16:22:47.448Z,9.99
2022-11-13T16:25:34.517Z,10.00
2022-11-13T16:28:20.739Z,9.95
2022-11-13T16:31:07.313Z,9.97
2022-11-13T16:33:53.848Z,9.92
2022-11-13T16:36:40.543Z,9.92
2022-11-13T16:39:26.366Z,9.90
2022-11-13T16:42:14.467Z,9.88
2022-11-13T16:45:00.686Z,9.87
2022-11-13T16:47:47.595Z,9.89
2022-11-13T16:50:34.499Z,9.85
2022-11-13T16:53:20.923Z,9.84
2022-11-13T16:58:49.699Z,9.80
2022-11-13T17:01:36.286Z,9.78
2022-11-13T17:04:22.856Z,9.74
2022-11-13T17:07:14.083Z,9.73
2022-11-13T17:10:28.950Z,9.72
2022-11-13T17:13:06.579Z,9.70
2022-11-13T17:15:54.789Z,9.66
2022-11-13T17:18:40.968Z,9.65
2022-11-13T17:21:29.327Z,9.64
2022-11-13T17:24:15.678Z,9.62
2022-11-13T17:27:01.992Z,9.58
2022-11-13T17:29:48.320Z,9.54
2022-11-13T17:32:35.438Z,9.54
2022-11-13T17:35:21.564Z,9.51
2022-11-13T17:38:08.003Z,9.50
2022-11-13T17:40:54.759Z,9.46
2022-11-13T17:43:42.240Z,9.46
2022-11-13T17:46:29.092Z,9.46
2022-11-13T17:49:16.545Z,9.42
2022-11-13T17:52:03.209Z,9.40
2022-11-13T17:54:53.895Z,9.39
2022-11-13T17:57:40.394Z,9.34
2022-11-13T18:00:26.690Z,9.33
2022-11-13T18:03:13.085Z,9.31
2022-11-13T18:06:04.274Z,9.32
2022-11-13T18:08:51.792Z,9.31
2022-11-13T18:11:38.654Z,9.29
2022-11-13T18:14:24.964Z,9.32
2022-11-13T18:17:11.489Z,9.28
2022-11-13T18:20:01.753Z,9.30
2022-11-13T18:22:48.664Z,9.33
2022-11-13T18:25:39.613Z,9.32
2022-11-13T18:28:26.299Z,9.32
2022-11-13T18:31:16.953Z,9.32
2022-11-13T18:34:04.728Z,9.35
2022-11-13T18:36:51.230Z,9.34
2022-11-13T18:39:37.719Z,9.32
2022-11-13T18:42:24.107Z,9.32
2022-11-13T18:45:11.928Z,9.32
2022-11-13T18:47:58.221Z,9.34
2022-11-13T18:50:55.410Z,9.31
2022-11-13T18:53:44.367Z,9.34
2022-11-13T18:56:32.339Z,9.35
2022-11-13T18:59:18.870Z,9.37
2022-11-13T19:02:05.149Z,9.31
2022-11-13T19:04:53.204Z,9.35
2022-11-13T19:07:39.853Z,9.38
2022-11-13T19:10:26.264Z,9.35
2022-11-13T19:13:12.412Z,9.39
2022-11-13T19:16:07.272Z,9.37
2022-11-13T19:19:01.009Z,9.37
2022-11-13T19:21:48.937Z,9.36
2022-11-13T19:24:35.794Z,9.38
2022-11-13T19:27:22.204Z,9.36
2022-11-13T19:30:10.780Z,9.36
2022-11-13T19:32:57.290Z,9.33
2022-11-13T19:35:44.369Z,9.29
2022-11-13T19:38:31.016Z,9.27
2022-11-13T19:41:18.076Z,9.29
2022-11-13T19:44:04.136Z,9.28
2022-11-13T19:46:51.538Z,9.23
2022-11-13T19:49:39.821Z,9.20
2022-11-13T19:52:26.612Z,9.20
2022-11-13T19:55:12.980Z,9.14
2022-11-13T19:57:59.180Z,9.14
2022-11-13T20:00:46.103Z,9.15
2022-11-13T20:03:32.632Z,9.15
2022-11-13T20:06:19.393Z,9.17
2022-11-13T20:09:06.537Z,9.14
2022-11-13T20:12:00.220Z,9.13
2022-11-13T20:14:46.692Z,9.09
2022-11-13T20:17:33.256Z,9.09
2022-11-13T20:20:20.230Z,9.08
2022-11-13T20:23:06.571Z,9.08
2022-11-13T20:25:59.502Z,9.03
2022-11-13T20:28:45.571Z,9.04
2022-11-13T20:31:31.986Z,9.06
2022-11-13T20:34:18.632Z,9.00
2022-11-13T20:37:04.995Z,8.98
2022-11-13T20:39:52.034Z,8.94
2022-11-13T20:42:38.851Z,8.97
2022-11-13T20:45:25.234Z,8.96
2022-11-13T20:48:11.835Z,8.90
2022-11-13T20:50:58.298Z,8.89
2022-11-13T20:53:45.024Z,8.90
2022-11-13T20:56:32.492Z,8.87
2022-11-13T20:59:18.813Z,8.85
2022-11-13T21:02:04.760Z,8.88
2022-11-13T21:04:51.118Z,8.89
2022-11-13T21:07:38.148Z,8.90
2022-11-13T21:10:24.407Z,8.90
2022-11-13T21:13:12.642Z,8.89
2022-11-13T21:15:58.798Z,8.90
2022-11-13T21:18:45.495Z,8.83
2022-11-13T21:21:32.067Z,8.85
2022-11-13T21:24:18.103Z,8.81
2022-11-13T21:27:04.717Z,8.79
2022-11-13T21:29:54.060Z,8.82
2022-11-13T21:32:40.551Z,8.76
2022-11-13T21:35:28.164Z,8.77
2022-11-13T21:38:14.368Z,8.74
2022-11-13T21:41:21.541Z,8.77
2022-11-13T21:44:10.739Z,8.75
2022-11-13T21:46:56.885Z,8.73
2022-11-13T21:49:44.719Z,8.73
2022-11-13T21:52:31.442Z,8.68
2022-11-13T21:55:17.568Z,8.66
2022-11-13T21:58:03.663Z,8.60
2022-11-13T22:00:50.379Z,8.65
2022-11-13T22:03:37.072Z,8.52
2022-11-13T22:06:26.191Z,8.58
2022-11-13T22:09:22.024Z,8.53
2022-11-13T22:12:09.992Z,8.53
2022-11-13T22:14:56.826Z,8.49
2022-11-13T22:17:43.145Z,8.48
2022-11-13T22:20:29.878Z,8.45
2022-11-13T22:23:16.933Z,8.41
2022-11-13T22:26:11.860Z,8.36
2022-11-13T22:29:00.126Z,8.32
2022-11-13T22:31:48.391Z,8.41
2022-11-13T22:34:34.904Z,8.35
2022-11-13T22:37:21.351Z,8.33
2022-11-13T22:40:08.640Z,8.27
2022-11-13T22:42:55.526Z,8.28
2022-11-13T22:45:42.066Z,8.23
2022-11-13T22:48:28.629Z,8.22
2022-11-13T22:51:17.941Z,8.21
2022-11-13T22:54:07.311Z,8.12
2022-11-13T22:56:53.736Z,8.12
2022-11-13T22:59:39.979Z,8.09
2022-11-13T23:02:28.701Z,8.07
2022-11-13T23:05:14.977Z,7.95
2022-11-13T23:08:00.898Z,7.93
2022-11-13T23:10:54.014Z,7.90
2022-11-13T23:13:43.861Z,7.82
2022-11-13T23:16:33.335Z,7.85
2022-11-13T23:19:19.456Z,7.76
2022-11-13T23:22:05.267Z,7.77
2022-11-13T23:24:52.007Z,7.76
2022-11-13T23:27:38.720Z,7.74
2022-11-13T23:30:25.142Z,7.68
2022-11-13T23:33:11.284Z,7.70
2022-11-13T23:35:57.510Z,7.70
2022-11-13T23:38:44.564Z,7.65
2022-11-13T23:41:31.608Z,7.64
2022-11-13T23:44:18.498Z,7.55
2022-11-13T23:47:04.975Z,7.52
2022-11-13T23:49:51.448Z,7.52
2022-11-13T23:52:38.239Z,7.58
2022-11-13T23:55:25.348Z,7.49
2022-11-13T23:58:15.983Z,7.48
